createdAt,value
2022-11-08T00:02:10.808Z,2.06
2022-11-08T00:05:33.750Z,2.08
2022-11-08T00:08:56.471Z,2.75
2022-11-08T00:12:19.050Z,2.72
2022-11-08T00:15:23.401Z,3.28
2022-11-08T00:18:27.669Z,3.77
2022-11-08T00:21:31.973Z,3.98
2022-11-08T00:24:36.545Z,4.74
2022-11-08T00:27:41.016Z,5.35
2022-11-08T00:30:45.389Z,5.32
2022-11-08T00:33:49.637Z,5.19
2022-11-08T00:36:54.477Z,5.19
2022-11-08T00:39:58.698Z,5.62
2022-11-08T00:43:03.086Z,6.15
2022-11-08T00:46:07.405Z,6.70
2022-11-08T00:49:12.567Z,5.93
2022-11-08T00:52:16.612Z,6.10
2022-11-08T00:55:20.962Z,5.25
2022-11-08T00:58:27.720Z,5.16
2022-11-08T01:01:32.802Z,5.31
2022-11-08T01:04:37.759Z,5.99
2022-11-08T01:07:42.119Z,6.19
2022-11-08T01:10:49.366Z,6.35
2022-11-08T01:13:57.564Z,6.21
2022-11-08T01:17:01.975Z,6.19
2022-11-08T01:20:07.171Z,5.98
2022-11-08T01:23:13.166Z,5.86
2022-11-08T01:26:19.372Z,5.68
2022-11-08T01:29:23.450Z,6.54
2022-11-08T01:32:27.562Z,5.94
2022-11-08T01:35:35.290Z,5.76
2022-11-08T01:38:40.229Z,5.82
2022-11-08T01:41:44.540Z,5.46
2022-11-08T01:45:01.585Z,5.27
2022-11-08T01:48:06.593Z,5.26
2022-11-08T01:51:14.335Z,5.46
2022-11-08T01:54:24.196Z,6.01
2022-11-08T01:58:07.628Z,6.57
2022-11-08T02:01:13.962Z,6.32
2022-11-08T02:04:18.691Z,6.01
2022-11-08T02:07:24.165Z,5.69
2022-11-08T02:10:35.130Z,5.67
2022-11-08T02:13:40.306Z,5.55
2022-11-08T02:16:44.767Z,5.59
2022-11-08T02:19:52.041Z,5.35
2022-11-08T02:23:14.196Z,4.92
2022-11-08T02:26:21.434Z,4.95
2022-11-08T02:29:25.716Z,5.36
2022-11-08T02:32:41.661Z,5.65
2022-11-08T02:35:49.706Z,6.07
2022-11-08T02:38:57.053Z,5.82
2022-11-08T02:42:03.092Z,5.64
2022-11-08T02:45:09.186Z,5.46
2022-11-08T02:48:14.297Z,5.35
2022-11-08T02:51:18.990Z,5.40
2022-11-08T02:54:23.582Z,5.32
2022-11-08T02:57:27.960Z,5.40
2022-11-08T03:00:33.316Z,5.61
2022-11-08T03:03:37.973Z,5.97
2022-11-08T03:06:42.262Z,6.12
2022-11-08T03:09:46.613Z,5.87
2022-11-08T03:12:59.182Z,5.93
2022-11-08T03:16:07.540Z,5.64
2022-11-08T03:19:13.317Z,5.94
2022-11-08T03:22:17.305Z,5.71
2022-11-08T03:25:21.571Z,5.53
2022-11-08T03:28:25.999Z,5.82
2022-11-08T03:31:30.439Z,5.55
2022-11-08T03:34:34.661Z,5.75
2022-11-08T03:37:39.100Z,5.95
2022-11-08T03:40:44.138Z,5.75
2022-11-08T03:43:48.508Z,5.90
2022-11-08T03:46:52.692Z,6.01
2022-11-08T03:49:56.992Z,5.88
2022-11-08T03:53:01.263Z,5.91
2022-11-08T03:56:05.993Z,5.83
2022-11-08T03:59:12.518Z,5.82
2022-11-08T04:02:17.031Z,5.63
2022-11-08T04:05:23.109Z,5.63
2022-11-08T04:08:27.506Z,5.95
2022-11-08T04:11:50.389Z,5.88
2022-11-08T04:15:13.179Z,6.05
2022-11-08T04:18:35.927Z,6.04
2022-11-08T04:21:40.279Z,6.06
2022-11-08T04:24:45.145Z,6.17
2022-11-08T04:27:49.555Z,6.18
2022-11-08T04:31:06.828Z,6.31
2022-11-08T04:34:11.357Z,6.15
2022-11-08T04:37:15.554Z,6.30
2022-11-08T04:40:20.170Z,6.33
2022-11-08T04:43:24.842Z,6.07
2022-11-08T04:46:30.777Z,5.97
2022-11-08T04:49:34.894Z,6.22
2022-11-08T04:52:39.228Z,6.17
2022-11-08T04:55:43.676Z,6.23
2022-11-08T04:58:53.227Z,6.21
2022-11-08T05:01:57.899Z,6.38
2022-11-08T05:05:02.097Z,6.41
2022-11-08T05:08:07.459Z,6.45
2022-11-08T05:11:16.948Z,6.47
2022-11-08T05:14:21.461Z,6.53
2022-11-08T05:17:25.506Z,6.62
2022-11-08T05:20:48.332Z,6.55
2022-11-08T05:23:53.197Z,6.78
2022-11-08T05:26:57.781Z,6.72
2022-11-08T05:30:02.458Z,6.48
2022-11-08T05:33:07.443Z,6.22
2022-11-08T05:36:14.218Z,6.32
2022-11-08T05:39:18.445Z,6.42
2022-11-08T05:42:22.779Z,6.54
2022-11-08T05:45:27.197Z,6.43
2022-11-08T05:48:32.059Z,6.39
2022-11-08T05:51:36.333Z,6.22
2022-11-08T05:54:40.529Z,6.35
2022-11-08T05:57:44.608Z,6.18
2022-11-08T06:00:48.819Z,5.96
2022-11-08T06:03:53.306Z,5.82
2022-11-08T06:06:57.551Z,5.82
2022-11-08T06:10:02.010Z,5.77
2022-11-08T06:13:07.331Z,5.80
2022-11-08T06:16:14.198Z,5.84
2022-11-08T06:19:18.406Z,5.69
2022-11-08T06:22:22.550Z,5.55
2022-11-08T06:25:27.021Z,5.25
2022-11-08T06:28:31.333Z,5.52
2022-11-08T06:31:41.884Z,5.45
2022-11-08T06:34:50.016Z,5.33
2022-11-08T06:37:59.891Z,5.34
2022-11-08T06:41:05.137Z,5.38
2022-11-08T06:44:09.496Z,5.35
2022-11-08T06:47:13.627Z,5.37
2022-11-08T06:50:17.794Z,5.45
2022-11-08T06:53:22.411Z,5.40
2022-11-08T06:56:27.140Z,5.47
2022-11-08T06:59:31.587Z,5.43
2022-11-08T07:02:36.361Z,5.42
2022-11-08T07:05:40.536Z,5.34
2022-11-08T07:08:45.086Z,5.19
2022-11-08T07:11:49.388Z,5.14
2022-11-08T07:14:53.665Z,5.10
2022-11-08T07:18:03.223Z,5.01
2022-11-08T07:21:07.783Z,5.01
2022-11-08T07:24:12.219Z,4.81
2022-11-08T07:27:16.762Z,4.84
2022-11-08T07:30:20.888Z,4.66
2022-11-08T07:33:25.328Z,4.51
2022-11-08T07:36:29.760Z,4.29
2022-11-08T07:39:34.170Z,4.02
2022-11-08T07:43:09.651Z,3.74
2022-11-08T07:46:04.271Z,3.76
2022-11-08T07:49:08.744Z,3.60
2022-11-08T07:52:13.326Z,2.93
2022-11-08T07:55:17.594Z,2.78
2022-11-08T07:58:22.027Z,2.49
2022-11-08T08:01:26.486Z,2.42
2022-11-08T08:04:31.790Z,2.02
2022-11-08T08:07:37.368Z,1.94
2022-11-08T08:10:42.633Z,1.86
2022-11-08T08:13:47.324Z,1.55
2022-11-08T08:16:51.953Z,1.53
2022-11-08T08:19:56.541Z,1.21
2022-11-08T08:23:01.869Z,1.15
2022-11-08T08:26:06.454Z,1.06
2022-11-08T08:29:10.913Z,1.01
2022-11-08T08:32:15.698Z,1.11
2022-11-08T08:35:20.223Z,0.93
2022-11-08T08:38:26.012Z,0.88
2022-11-08T08:41:30.056Z,0.99
2022-11-08T08:44:34.990Z,0.86
2022-11-08T08:47:39.370Z,0.85
2022-11-08T08:50:43.782Z,0.94
2022-11-08T08:53:48.223Z,1.00
2022-11-08T08:56:54.805Z,0.82
2022-11-08T09:03:23.673Z,0.62
2022-11-08T09:06:28.190Z,0.67
2022-11-08T09:09:32.692Z,0.91
2022-11-08T09:12:37.628Z,0.63
2022-11-08T09:15:42.404Z,0.75
2022-11-08T09:18:46.750Z,0.57
2022-11-08T09:21:51.345Z,0.10
2022-11-08T09:24:55.683Z,0.18
2022-11-08T09:28:00.135Z,-0.05
2022-11-08T09:31:07.264Z,-0.08
2022-11-08T09:34:11.726Z,0.12
2022-11-08T09:37:16.107Z,-0.03
2022-11-08T09:40:34.242Z,0.13
2022-11-08T09:44:00.885Z,0.25
2022-11-08T09:47:12.796Z,-0.21
2022-11-08T09:50:39.699Z,-0.52
2022-11-08T09:54:05.164Z,-0.67
2022-11-08T09:58:00.392Z,-0.62
2022-11-08T10:01:05.581Z,-0.54
2022-11-08T10:04:17.536Z,-0.21
2022-11-08T10:07:37.806Z,-0.38
2022-11-08T10:10:48.657Z,-0.76
2022-11-08T10:14:26.619Z,-0.68
2022-11-08T10:17:34.203Z,-0.64
2022-11-08T10:20:59.611Z,-0.67
2022-11-08T10:24:10.472Z,-0.71
2022-11-08T10:27:34.207Z,-0.83
2022-11-08T10:30:41.744Z,-1.17
2022-11-08T10:33:56.383Z,-1.14
2022-11-08T10:37:07.598Z,-1.12
2022-11-08T10:40:26.634Z,-0.89
2022-11-08T10:43:47.013Z,-1.25
2022-11-08T10:46:57.452Z,-1.26
2022-11-08T10:50:04.397Z,-1.24
2022-11-08T10:53:24.238Z,-1.48
2022-11-08T10:56:29.920Z,-1.31
2022-11-08T10:59:35.099Z,-1.43
2022-11-08T11:02:39.816Z,-1.57
2022-11-08T11:05:59.712Z,-1.70
2022-11-08T11:09:21.213Z,-1.87
2022-11-08T11:12:26.527Z,-1.87
2022-11-08T11:15:45.084Z,-2.01
2022-11-08T11:18:54.042Z,-1.52
2022-11-08T11:22:08.168Z,-1.77
2022-11-08T11:25:21.618Z,-2.11
2022-11-08T11:28:29.129Z,-1.94
2022-11-08T11:31:45.554Z,-1.94
2022-11-08T11:35:05.478Z,-1.84
2022-11-08T11:38:21.041Z,-1.77
2022-11-08T11:41:52.756Z,-2.20
2022-11-08T11:45:21.111Z,-2.19
2022-11-08T11:48:37.112Z,-2.20
2022-11-08T11:51:46.303Z,-1.92
2022-11-08T11:54:51.737Z,-2.00
2022-11-08T11:58:27.928Z,-2.44
2022-11-08T12:01:52.003Z,-2.60
2022-11-08T12:05:02.419Z,-2.30
2022-11-08T12:08:43.141Z,-2.50
2022-11-08T12:12:20.974Z,-2.64
2022-11-08T12:15:58.254Z,-2.21
2022-11-08T12:19:31.861Z,-2.28
2022-11-08T12:23:00.574Z,-2.17
2022-11-08T12:26:25.567Z,-2.35
2022-11-08T12:30:04.239Z,-2.52
2022-11-08T12:33:57.647Z,-2.78
2022-11-08T12:37:15.136Z,-2.83
2022-11-08T12:40:32.935Z,-3.05
2022-11-08T12:44:00.374Z,-2.92
2022-11-08T12:47:25.326Z,-3.06
2022-11-08T12:50:34.589Z,-3.05
2022-11-08T12:53:41.773Z,-2.63
2022-11-08T12:56:50.902Z,-2.65
2022-11-08T13:00:17.368Z,-2.73
2022-11-08T13:03:42.572Z,-2.60
2022-11-08T13:06:57.150Z,-2.45
2022-11-08T13:10:04.700Z,-2.37
2022-11-08T13:13:25.421Z,-2.66
2022-11-08T13:16:40.711Z,-2.99
2022-11-08T13:19:48.326Z,-2.93
2022-11-08T13:23:01.191Z,-3.06
2022-11-08T13:26:35.513Z,-3.33
2022-11-08T13:29:40.049Z,-3.42
2022-11-08T13:32:47.496Z,-3.17
2022-11-08T13:36:13.579Z,-3.07
2022-11-08T13:39:32.927Z,-2.99
2022-11-08T13:42:37.246Z,-3.30
2022-11-08T13:45:41.702Z,-3.35
2022-11-08T13:49:06.317Z,-3.39
2022-11-08T13:52:48.634Z,-3.46
2022-11-08T13:55:57.993Z,-3.39
2022-11-08T13:59:02.209Z,-3.39
2022-11-08T14:02:26.504Z,-3.51
2022-11-08T14:05:43.472Z,-3.23
2022-11-08T14:08:59.393Z,-3.40
2022-11-08T14:12:27.798Z,-3.49
2022-11-08T14:15:58.251Z,-3.65
2022-11-08T14:19:31.827Z,-3.38
2022-11-08T14:22:36.142Z,-3.79
2022-11-08T14:25:41.157Z,-3.58
2022-11-08T14:28:47.436Z,-3.59
2022-11-08T14:32:16.620Z,-3.69
2022-11-08T14:35:26.746Z,-3.77
2022-11-08T14:38:34.393Z,-3.71
2022-11-08T14:41:38.880Z,-3.63
2022-11-08T14:44:45.476Z,-3.86
2022-11-08T14:48:00.363Z,-3.99
2022-11-08T14:51:07.217Z,-3.91
2022-11-08T14:54:38.209Z,-3.89
2022-11-08T14:57:47.734Z,-3.96
2022-11-08T15:00:52.218Z,-3.99
2022-11-08T15:04:03.908Z,-4.21
2022-11-08T15:07:10.675Z,-4.44
2022-11-08T15:10:15.270Z,-3.93
2022-11-08T15:13:20.118Z,-4.12
2022-11-08T15:16:25.380Z,-4.11
2022-11-08T15:19:45.370Z,-4.10
2022-11-08T15:22:54.128Z,-4.08
2022-11-08T15:26:01.877Z,-4.18
2022-11-08T15:29:16.810Z,-4.14
2022-11-08T15:32:22.959Z,-4.14
2022-11-08T15:35:40.591Z,-4.26
2022-11-08T15:38:50.377Z,-4.09
2022-11-08T15:42:24.264Z,-4.23
2022-11-08T15:45:36.419Z,-4.11
2022-11-08T15:48:42.174Z,-4.24
2022-11-08T15:51:47.324Z,-4.08
2022-11-08T15:54:51.523Z,-4.09
2022-11-08T15:57:56.510Z,-4.52
2022-11-08T16:01:02.904Z,-4.22
2022-11-08T16:04:14.105Z,-4.05
2022-11-08T16:07:18.625Z,-4.12
2022-11-08T16:10:33.698Z,-4.07
2022-11-08T16:13:40.764Z,-4.12
2022-11-08T16:16:45.744Z,-4.02
2022-11-08T16:19:50.244Z,-4.24
2022-11-08T16:22:56.120Z,-4.21
2022-11-08T16:26:01.781Z,-4.32
2022-11-08T16:29:06.655Z,-4.37
2022-11-08T16:32:11.659Z,-4.04
2022-11-08T16:35:18.225Z,-3.60
2022-11-08T16:38:29.426Z,-3.58
2022-11-08T16:41:35.771Z,-3.44
2022-11-08T16:44:45.223Z,-3.59
2022-11-08T16:47:51.715Z,-2.93
2022-11-08T16:51:04.221Z,-2.46
2022-11-08T16:54:19.863Z,-2.97
2022-11-08T16:57:39.596Z,-3.02
2022-11-08T17:00:46.211Z,-2.62
2022-11-08T17:03:50.691Z,-2.17
2022-11-08T17:06:55.939Z,-2.49
2022-11-08T17:10:00.370Z,-2.66
2022-11-08T17:13:05.037Z,-2.64
2022-11-08T17:16:13.082Z,-2.06
2022-11-08T17:19:17.420Z,-1.53
2022-11-08T17:22:21.772Z,-1.28
2022-11-08T17:25:27.028Z,-1.14
2022-11-08T17:28:31.529Z,-1.16
2022-11-08T17:31:36.259Z,-0.86
2022-11-08T17:34:40.830Z,-0.86
2022-11-08T17:37:45.230Z,-0.76
2022-11-08T17:40:49.660Z,-0.81
2022-11-08T17:43:53.680Z,-0.70
2022-11-08T17:46:58.209Z,-0.55
2022-11-08T17:50:06.342Z,-0.71
2022-11-08T17:53:10.796Z,-0.75
2022-11-08T17:56:15.365Z,-0.54
2022-11-08T17:59:20.135Z,-0.62
2022-11-08T18:02:28.232Z,-0.65
2022-11-08T18:05:32.750Z,-0.48
2022-11-08T18:08:37.041Z,-0.47
2022-11-08T18:11:48.458Z,-0.49
2022-11-08T18:14:52.571Z,-0.48
2022-11-08T18:17:57.152Z,-0.57
2022-11-08T18:21:01.421Z,-0.27
2022-11-08T18:24:05.950Z,-0.22
2022-11-08T18:27:10.414Z,-0.25
2022-11-08T18:30:15.078Z,-0.25
2022-11-08T18:33:22.037Z,-0.38
2022-11-08T18:36:29.430Z,-0.54
2022-11-08T18:39:34.100Z,-0.33
2022-11-08T18:42:38.673Z,-0.37
2022-11-08T18:45:43.011Z,-0.17
2022-11-08T18:48:47.869Z,-0.19
2022-11-08T18:51:52.996Z,-0.40
2022-11-08T18:54:58.567Z,-0.10
2022-11-08T18:58:04.387Z,-0.06
2022-11-08T19:01:08.629Z,-0.27
2022-11-08T19:04:14.401Z,-0.15
2022-11-08T19:07:18.754Z,0.04
2022-11-08T19:10:23.196Z,-0.12
2022-11-08T19:13:29.670Z,-0.05
2022-11-08T19:16:34.227Z,-0.12
2022-11-08T19:19:38.490Z,-0.08
2022-11-08T19:22:43.106Z,-0.29
2022-11-08T19:25:55.373Z,-0.34
2022-11-08T19:29:00.231Z,-0.28
2022-11-08T19:32:05.007Z,-0.26
2022-11-08T19:35:10.926Z,-0.23
2022-11-08T19:38:16.971Z,-0.24
2022-11-08T19:41:23.453Z,-0.39
2022-11-08T19:44:28.209Z,-0.41
2022-11-08T19:47:33.019Z,-0.24
2022-11-08T19:50:37.334Z,-0.22
2022-11-08T19:53:42.504Z,-0.33
2022-11-08T20:00:12.388Z,-0.31
2022-11-08T20:03:16.368Z,-0.19
2022-11-08T20:06:22.766Z,0.17
2022-11-08T20:09:30.595Z,-0.21
2022-11-08T20:12:35.574Z,-0.10
2022-11-08T20:15:39.837Z,-0.05
2022-11-08T20:18:44.804Z,-0.18
2022-11-08T20:21:49.370Z,-0.13
2022-11-08T20:24:53.851Z,0.01
2022-11-08T20:27:57.814Z,-0.01
2022-11-08T20:31:04.453Z,-0.10
2022-11-08T20:34:11.105Z,-0.27
2022-11-08T20:37:15.565Z,-0.23
2022-11-08T20:40:19.936Z,-0.48
2022-11-08T20:43:25.150Z,-0.27
2022-11-08T20:46:30.532Z,-0.36
2022-11-08T20:49:34.709Z,-0.19
2022-11-08T20:52:39.207Z,-0.18
2022-11-08T20:55:43.229Z,-0.13
2022-11-08T20:58:49.038Z,-0.06
2022-11-08T21:01:53.382Z,-0.42
2022-11-08T21:04:57.749Z,-0.26
2022-11-08T21:08:19.814Z,-0.26
2022-11-08T21:11:28.625Z,-0.21
2022-11-08T21:14:33.064Z,-0.16
2022-11-08T21:17:37.670Z,-0.25
2022-11-08T21:20:42.562Z,-0.23
2022-11-08T21:23:48.787Z,-0.17
2022-11-08T21:26:53.053Z,-0.15
2022-11-08T21:29:57.420Z,-0.26
2022-11-08T21:33:01.666Z,-0.19
2022-11-08T21:36:06.889Z,-0.16
2022-11-08T21:39:11.842Z,-0.04
2022-11-08T21:42:16.295Z,0.08
2022-11-08T21:45:21.425Z,-0.03
2022-11-08T21:48:25.588Z,-0.01
2022-11-08T21:51:30.866Z,0.05
2022-11-08T21:54:35.157Z,0.11
2022-11-08T21:57:40.504Z,-0.01
2022-11-08T22:00:50.791Z,-0.27
2022-11-08T22:03:55.523Z,0.08
2022-11-08T22:06:59.849Z,0.11
2022-11-08T22:10:05.359Z,0.05
2022-11-08T22:13:09.810Z,-0.06
2022-11-08T22:16:14.124Z,-0.21
2022-11-08T22:19:18.341Z,0.11
2022-11-08T22:22:23.144Z,-0.05
2022-11-08T22:25:27.384Z,0.20
2022-11-08T22:28:31.719Z,0.22
2022-11-08T22:31:36.247Z,-0.25
2022-11-08T22:34:40.577Z,0.64
2022-11-08T22:37:44.683Z,0.46
2022-11-08T22:40:49.306Z,0.53
2022-11-08T22:43:54.032Z,0.39
2022-11-08T22:46:58.281Z,0.51
2022-11-08T22:50:02.641Z,0.52
2022-11-08T22:53:07.552Z,0.60
2022-11-08T22:56:12.835Z,0.64
2022-11-08T22:59:17.333Z,0.75
2022-11-08T23:02:21.575Z,0.68
2022-11-08T23:05:25.785Z,0.86
2022-11-08T23:08:31.411Z,1.26
2022-11-08T23:11:54.175Z,1.16
2022-11-08T23:15:16.793Z,1.49
2022-11-08T23:18:23.162Z,1.62
2022-11-08T23:21:45.857Z,1.91
2022-11-08T23:24:50.479Z,1.86
2022-11-08T23:28:13.272Z,1.61
2022-11-08T23:31:35.773Z,1.70
2022-11-08T23:34:40.003Z,1.83
2022-11-08T23:37:44.532Z,1.89
2022-11-08T23:41:07.346Z,1.76
2022-11-08T23:44:26.992Z,1.42
2022-11-08T23:47:31.154Z,1.49
2022-11-08T23:50:35.532Z,1.66
2022-11-08T23:53:40.703Z,1.53
2022-11-08T23:56:45.982Z,1.43
2022-11-08T23:59:50.332Z,2.26
